x

9440910 - Toke Point, Wa (tokw1) Weather Station

10:30 - Mon 31st Aug 2015 All times are PDT. -7 hours from GMT.

  • Wind
    16mph, 22mph gusts
  • Sea Temp 63°f
  • Air Temp 62°f
  • Sea Pressure 1015.6mb
  • 9440910 - Toke Point, Wa
  • 9440910 - Toke Point, Wa

More Historic Weather Station data

Upgrade to MSW Pro to gain access to the past 30 days of data for over 8000 Wavebouys and Weather Stations around the globe.

Join Pro

Comparision Forecast

View Surf forecast
   
lun. 08/31 10:30 16 22 mph 1015.6mb 63f 62f
10:24 15 21 mph 1015.6mb 62f 62f
10:18 17 22 mph 1015.5mb 62f 62f
10:12 17 23 mph 1015.5mb 62f 62f
10:06 17 23 mph 1015.4mb 62f 62f
10:00 17 23 mph 1015.3mb 62f 62f
9:54 16 22 mph 1015.3mb 62f 62f
9:48 16 22 mph 1015.3mb 62f 61f
9:42 14 23 mph 1015.3mb 62f 61f
9:36 18 22 mph 1015.3mb 62f 61f
9:30 17 23 mph 1015.3mb 62f 62f
9:24 18 22 mph 1015.2mb 62f 62f
9:18 17 23 mph 1015.2mb 62f 61f
9:12 18 22 mph 1015.2mb 62f 61f
9:06 15 22 mph 1015.3mb 62f 61f
9:00 16 23 mph 1015.3mb 62f 61f
ven. 08/28 10:30 3 6 mph 1014.5mb 62f 62f
10:24 6 7 mph 1014.5mb 62f 62f
10:18 6 7 mph 1014.6mb 63f 62f
10:12 6 7 mph 1014.7mb 63f 62f
10:06 6 8 mph 1014.6mb 63f 62f
10:00 6 7 mph 1014.7mb 63f 62f
9:54 7 8 mph 1014.8mb 63f 61f
9:48 6 7 mph 1014.8mb 63f 61f
9:42 6 7 mph 1014.9mb 63f 61f
9:36 7 8 mph 1014.8mb 62f 61f
9:30 6 8 mph 1014.9mb 62f 61f
9:24 7 8 mph 1014.9mb 63f 61f
9:18 5 7 mph 1014.8mb 63f 61f
9:12 6 7 mph 1014.9mb 63f 61f
9:06 7 8 mph 1014.9mb 63f 61f
9:00 7 8 mph 1014.8mb 63f 61f
8:54 7 8 mph 1014.8mb 64f 61f
8:48 7 10 mph 1015mb 63f 61f
8:42 8 10 mph 1015mb 64f 61f
8:36 8 9 mph 1015.1mb 64f 60f
8:30 9
mph
1015.2mb 63f 60f
8:24 8 9 mph 1015.2mb 64f 60f
8:18 8 10 mph 1015.2mb 64f 60f
8:12 8 9 mph 1015.2mb 64f 60f
8:06 8 10 mph 1015.1mb 64f 60f
8:00 10 13 mph 1015.2mb 64f 60f
7:54 11 13 mph 1015.2mb 64f 60f
7:48 10 11 mph 1015.1mb 64f 60f
7:42 10 13 mph 1015.2mb 64f 60f
7:36 10 13 mph 1015.2mb 65f 60f
7:30 9 11 mph 1015.2mb 65f 60f
7:24 10 11 mph 1015.2mb 65f 60f
7:18 9 11 mph 1015.2mb 65f 60f
7:12 9 11 mph 1015.2mb 65f 60f
7:06 9 13 mph 1015.2mb 65f 61f
7:00 9 10 mph 1015.1mb 64f 60f
6:54 8 10 mph 1015.3mb 64f 60f
6:48 9 11 mph 1015.3mb 64f 60f
6:42 11 13 mph 1015.3mb 64f 60f
6:36 10 11 mph 1015.2mb 64f 60f
6:30 10 11 mph 1015.3mb 63f 60f
6:24 9 11 mph 1015.3mb 63f 61f
6:18 9 10 mph 1015.3mb 64f 61f
6:12 9 11 mph 1015.4mb 62f 61f
6:06 9 10 mph 1015.4mb 62f 61f
6:00 9 11 mph 1015.4mb 62f 61f
5:54 9 11 mph 1015.4mb 62f 61f
5:48 9 10 mph 1015.3mb 64f 61f
5:42 9 10 mph 1015.2mb 63f 61f
5:36 8 10 mph 1015.3mb 62f 61f
5:30 7 8 mph 1015.3mb 63f 61f
5:24 7 8 mph 1015.4mb 62f 61f
5:18 7 8 mph 1015.6mb 61f 61f
5:12 6 8 mph 1015.5mb 62f 61f
5:06 7 9 mph 1015.5mb 62f 61f
5:00 8 9 mph 1015.5mb 62f 61f
4:54 7 9 mph 1015.5mb 61f 61f
4:48 8 10 mph 1015.6mb 61f 61f
4:42 8 10 mph 1015.6mb 61f 61f
4:36 9 10 mph 1015.5mb 61f 61f
4:30 8 9 mph 1015.6mb 61f 61f
4:24 8 9 mph 1015.6mb 61f 61f
4:18 7 8 mph 1015.5mb 61f 61f
4:12 7 8 mph 1015.6mb 61f 61f
4:06 7 8 mph 1015.7mb 61f 61f
4:00 7 9 mph 1015.9mb 61f 61f
3:54 8 10 mph 1015.9mb 61f 61f
3:48 9 11 mph 1015.9mb 61f 61f
3:42 9 13 mph 1015.9mb 61f 61f
3:36 8 11 mph 1015.9mb 61f 60f
3:30 10 13 mph 1015.9mb 61f 60f
3:24 10 14 mph 1015.8mb 61f 60f
3:18 10 13 mph 1015.9mb 61f 60f
3:12 10 13 mph 1015.9mb 61f 60f
3:06 11 13 mph 1015.9mb 61f 60f
3:00 11 14 mph 1016mb 61f 60f
2:54 14 15 mph 1016mb 61f 60f
2:48 13 15 mph 1016mb 61f 60f
2:42 10 13 mph 1016.1mb 61f 60f
2:36 7 9 mph 1016.1mb 61f 60f
2:30 7 9 mph 1016.2mb 61f 60f
2:24 6 8 mph 1016.4mb 61f 60f
2:18 6 8 mph 1016.4mb 61f 60f
2:12 7 9 mph 1016.4mb 61f 60f
2:06 5 7 mph 1016.3mb 61f 60f
2:00 6 9 mph 1016.2mb 61f 60f
1:54 8 9 mph 1016.3mb 61f 60f
1:48 7 9 mph 1016.3mb 61f 60f
1:42 7 10 mph 1016.3mb 61f 60f
1:36 8 10 mph 1016.4mb 61f 60f
1:30 9 13 mph 1016.4mb 61f 60f
1:24 10 15 mph 1016.4mb 61f 60f
1:18 11 13 mph 1016.4mb 61f 60f
1:12 10 14 mph 1016.3mb 61f 60f
1:06 11 14 mph 1016.3mb 61f 60f
1:00 8 9 mph 1016.3mb 61f 60f
12:54 6 8 mph 1016.3mb 61f 60f
12:48 6 7 mph 1016.2mb 60f 60f
12:42 3 5 mph 1016.4mb 61f 60f
12:36 5 6 mph 1016.5mb 61f 60f
12:30 3
mph
1016.4mb 61f 60f
12:24 3 5 mph 1016.4mb 61f 60f
12:18  -  mph - - 61f
12:12  -  mph - - 61f
12:06  -  mph - - 61f
12:00 2 3 mph 1015.9mb 61f 61f
jeu. 08/27 11:54 2 3 mph 1015.8mb 60f 61f
11:48  -  2 mph 1016.1mb 60f 61f
11:42 2
mph
1016mb 61f 61f
11:36 1
mph
1016.2mb 60f 61f
11:30  -  1 mph 1016.3mb 60f 61f
11:24  -  1 mph 1016.5mb 60f 61f
11:18 1 2 mph 1016.5mb 60f 61f
11:12  -  6 mph 1016.6mb 60f 61f
11:06 6
mph
1016mb 60f 61f
11:00 2 3 mph 1016.8mb 60f 60f
10:54 3 6 mph 1017mb 60f 61f
10:48 5
mph
1016.8mb 60f 61f
10:42 3
mph
1016.7mb 60f 61f
10:36 2 3 mph 1016.7mb 60f 61f
10:30 1
mph
1016.8mb 60f 61f
10:24  -  3 mph 1016.6mb 60f 61f
10:18 5
mph
1016.5mb 60f 61f
10:12 2
mph
1016.9mb 60f 61f
10:06 1 2 mph 1017.1mb 60f 61f
10:00  -  2 mph 1017mb 60f 61f
9:54  -  3 mph 1017mb 60f 61f
9:48 2 3 mph 1017.1mb 60f 61f
9:42 2 5 mph 1017mb 61f 61f
9:36 3 6 mph 1017mb 60f 61f
9:30 6 8 mph 1016.9mb 60f 61f
9:24 6 8 mph 1017.1mb 61f 61f
9:18 5 8 mph 1017mb 61f 61f
9:12 6 9 mph 1017mb 61f 61f
9:06 8 10 mph 1016.6mb 61f 61f
9:00 8 10 mph 1016.8mb 62f 61f
8:54 8 11 mph 1016.6mb 62f 61f
8:48 8 11 mph 1016.4mb 61f 61f
8:42 8 10 mph 1016.2mb 61f 61f
8:36 8 10 mph 1016.1mb 61f 61f
8:30 6 9 mph 1016.1mb 62f 61f
8:24 5 8 mph 1015.9mb 62f 61f
8:18 6 9 mph 1015.8mb 61f 61f
8:12 7 9 mph 1015.7mb 62f 61f
8:06 5 8 mph 1015.9mb 63f 61f
8:00 5 7 mph 1015.9mb 64f 61f
7:54 6 9 mph 1015.8mb 64f 61f
7:48 6 7 mph 1015.7mb 63f 61f
7:42 5 6 mph 1015.6mb 63f 61f
7:36 3 6 mph 1015.5mb 63f 61f
7:30 3 6 mph 1015.5mb 63f 61f
7:24 6
mph
1015.6mb 63f 61f
7:18 5 6 mph 1015.5mb 64f 61f
7:12 5 7 mph 1015.6mb 64f 61f
7:06 5 8 mph 1015.6mb 64f 61f
7:00 7 9 mph 1015.8mb 64f 61f
6:54 8 10 mph 1015.9mb 64f 61f
6:48 8 10 mph 1016mb 64f 62f
6:42 6 8 mph 1016mb 65f 63f
6:36 6 7 mph 1015.9mb 65f 63f
6:30 5 6 mph 1015.9mb 65f 64f
6:24 5 7 mph 1015.9mb 66f 64f
6:18 6 7 mph 1015.9mb 65f 64f